createdAt,value
2022-12-23T00:00:00.283Z,37.2
2022-12-23T00:10:00.313Z,37.8
2022-12-23T00:20:00.278Z,39.7
2022-12-23T00:30:00.259Z,42.6
2022-12-23T00:40:06.290Z,41.6
2022-12-23T00:50:00.270Z,40.3
2022-12-23T01:00:00.990Z,36.7
2022-12-23T01:10:00.807Z,34.9
2022-12-23T01:20:00.384Z,35.1
2022-12-23T01:30:00.520Z,36.2
2022-12-23T01:40:00.546Z,36.2
2022-12-23T01:50:00.514Z,36.9
2022-12-23T02:00:00.807Z,37.5
2022-12-23T02:10:00.600Z,31.7
2022-12-23T02:20:00.372Z,29.4
2022-12-23T02:30:01.191Z,27.7
2022-12-23T02:40:00.853Z,20.4
2022-12-23T02:50:01.458Z,18.3
2022-12-23T03:00:00.310Z,31.6
2022-12-23T03:10:00.243Z,44.5
2022-12-23T03:20:00.239Z,23.8
2022-12-23T03:30:00.250Z,38.3
2022-12-23T03:40:00.318Z,23.2
2022-12-23T03:50:00.442Z,26.4
2022-12-23T04:00:00.677Z,24.6
2022-12-23T04:10:00.373Z,27.0
2022-12-23T04:20:00.806Z,46.4
2022-12-23T04:30:00.744Z,45.4
2022-12-23T04:40:01.032Z,57.0
2022-12-23T04:50:00.840Z,55.8
2022-12-23T05:00:00.659Z,49.9
2022-12-23T05:10:00.362Z,46.8
2022-12-23T05:20:00.581Z,49.2
2022-12-23T05:30:00.685Z,51.2
2022-12-23T05:40:00.754Z,47.4
2022-12-23T05:50:00.787Z,44.8
2022-12-23T06:00:01.291Z,51.7
2022-12-23T06:10:01.019Z,44.6
2022-12-23T06:20:00.619Z,39.5
2022-12-23T06:30:00.446Z,66.9
2022-12-23T06:40:00.244Z,63.2
2022-12-23T06:50:00.255Z,46.7
2022-12-23T07:00:00.339Z,51.8
2022-12-23T07:10:00.347Z,65.5
2022-12-23T07:20:00.270Z,53.1
2022-12-23T07:30:00.281Z,66.3
2022-12-23T07:40:06.508Z,67.8
2022-12-23T07:50:00.875Z,60.0
2022-12-23T08:00:01.296Z,59.6
2022-12-23T08:10:00.433Z,79.7
2022-12-23T08:20:00.452Z,65.4
2022-12-23T08:30:00.351Z,89.9
2022-12-23T08:40:01.917Z,85.7
2022-12-23T08:50:00.931Z,79.6
2022-12-23T09:00:00.336Z,55.7
2022-12-23T09:10:00.284Z,92.2
2022-12-23T09:20:00.267Z,139.4
2022-12-23T09:30:00.286Z,230.0
2022-12-23T09:40:00.272Z,82.8
2022-12-23T09:50:00.249Z,164.8
2022-12-23T10:00:00.314Z,87.1
2022-12-23T10:10:00.250Z,67.7
2022-12-23T10:20:00.239Z,59.4
2022-12-23T10:30:13.893Z,63.5
2022-12-23T10:40:00.243Z,96.4
2022-12-23T10:50:00.239Z,62.0
2022-12-23T11:00:00.304Z,61.6
2022-12-23T11:10:00.270Z,82.4
2022-12-23T11:20:00.267Z,76.6
2022-12-23T11:30:00.288Z,77.0
2022-12-23T11:40:00.280Z,71.5
2022-12-23T11:50:00.266Z,44.6
2022-12-23T12:00:00.294Z,44.1
2022-12-23T12:10:00.242Z,47.8
2022-12-23T12:20:00.373Z,38.4
2022-12-23T12:30:06.156Z,43.8
2022-12-23T12:40:00.622Z,39.3
2022-12-23T12:50:00.672Z,36.6
2022-12-23T13:00:06.089Z,50.7
2022-12-23T13:10:00.748Z,58.8
2022-12-23T13:20:00.637Z,46.6
2022-12-23T13:30:00.365Z,48.7
2022-12-23T13:40:00.364Z,68.3
2022-12-23T13:50:00.251Z,72.4
2022-12-23T14:00:05.353Z,65.6
2022-12-23T14:10:00.259Z,60.5
2022-12-23T14:20:00.290Z,66.9
2022-12-23T14:30:05.726Z,62.4
2022-12-23T14:40:00.255Z,67.1
2022-12-23T14:50:01.053Z,67.4
2022-12-23T15:00:01.480Z,76.2
2022-12-23T15:10:01.606Z,64.7
2022-12-23T15:20:00.511Z,78.4
2022-12-23T15:30:00.360Z,78.1
2022-12-23T15:40:11.446Z,99.3
2022-12-23T15:50:00.493Z,64.9
2022-12-23T16:00:01.337Z,124.0
2022-12-23T16:10:00.472Z,146.5
2022-12-23T16:20:00.257Z,117.1
2022-12-23T16:30:00.530Z,102.4
2022-12-23T16:40:00.462Z,178.8
2022-12-23T16:50:00.263Z,141.7
2022-12-23T17:00:00.680Z,151.4
2022-12-23T17:10:00.337Z,112.6
2022-12-23T17:20:00.294Z,82.4
2022-12-23T17:30:00.242Z,48.9
2022-12-23T17:40:00.270Z,75.5
2022-12-23T17:50:00.253Z,327.6
2022-12-23T18:00:00.333Z,93.5
2022-12-23T18:10:00.221Z,33.1
2022-12-23T18:20:00.227Z,27.3
2022-12-23T18:30:00.304Z,30.8
2022-12-23T18:40:00.365Z,12.3
2022-12-23T18:50:00.249Z,15.4
2022-12-23T19:00:00.272Z,145.1
2022-12-23T19:10:00.230Z,109.1
2022-12-23T19:20:00.248Z,105.3
2022-12-23T19:30:00.382Z,77.0
2022-12-23T19:40:00.261Z,63.1
2022-12-23T19:50:00.237Z,62.2
2022-12-23T20:00:00.300Z,92.8
2022-12-23T20:10:00.284Z,54.9
2022-12-23T20:20:00.255Z,140.3
2022-12-23T20:30:00.304Z,117.2
2022-12-23T20:40:00.264Z,132.2
2022-12-23T20:50:00.255Z,128.4
2022-12-23T21:00:00.438Z,113.2
2022-12-23T21:10:00.425Z,160.1
2022-12-23T21:20:06.954Z,162.2
2022-12-23T21:30:00.323Z,177.8
2022-12-23T21:40:00.325Z,137.4
2022-12-23T21:50:00.259Z,175.9
2022-12-23T22:00:00.329Z,171.5
2022-12-23T22:10:00.246Z,166.5
2022-12-23T22:20:00.250Z,142.8
2022-12-23T22:30:00.257Z,136.8
2022-12-23T22:40:00.297Z,118.2
2022-12-23T22:50:00.254Z,130.4
2022-12-23T23:00:04.774Z,113.9
2022-12-23T23:10:00.301Z,123.2
2022-12-23T23:20:00.285Z,157.2
2022-12-23T23:30:00.282Z,96.7
2022-12-23T23:40:00.318Z,102.1
2022-12-23T23:50:00.264Z,94.1
